PWSweather.com
Personal Weather Stations
Station Observations
IVENETOL9
Brugine, BrugineIT 35020

BrugineBrugineIT 35020

Lat: 45.2975, Lon: 11.9962777

Elevation: 19

Station Type: Davis Vantage Pro2 Plus

http://www.meteobrugine.it/

Latest ConditionsUpdated 7:01:20 PM GMT+01:01 Tuesday, Sep 18, 2018
Currently Today's Max Today's Min Today's Average
Temperature 68.9°F20.5°C 80.3°F26.8°C 64.7°F18.2°C 71.8°F22.1°C
Dew Point 66.7°F19.3°C 72.7°F22.6°C 62.8°F17.1°C 67.8°F19.9°C
Winds Calm Calm 0.4 mph -0.6 kmh - - 0.0 mph 0.0 kmh
Wind Gusts -- 1.0 mph1.6 kmh - -
Humidity 93% 94% 74% 88%
Pressure 30.06 in1017.9 mb 30.11 in1019.6 mb 30.04 in1017.3 mb -
Hour Temp Dew Point Humidity Winds Wind Gusts Pressure Precip Precip Rate Daily Precip Total
07:01 PM 68.9°F20.5°C 66.7°F19.3°C 93% Calm Calm -- 30.06 in1017.9 mb - 0.00 in0.0 mm 0.00 in0.0 mm
06:46 PM 69.0°F20.6°C 66.6°F19.2°C 92% Calm Calm -- 30.05 in1017.6 mb - 0.00 in0.0 mm 0.00 in0.0 mm
06:31 PM 69.1°F20.6°C 66.7°F19.3°C 92% Calm Calm -- 30.05 in1017.6 mb - 0.00 in0.0 mm 0.00 in0.0 mm
06:16 PM 70.0°F21.1°C 67.6°F19.8°C 92% Calm Calm -- 30.07 in1018.3 mb - 0.00 in0.0 mm 0.00 in0.0 mm
06:01 PM 71.0°F21.7°C 68.2°F20.1°C 91% Calm Calm -- 30.07 in1018.3 mb - 0.00 in0.0 mm 0.00 in0.0 mm
05:46 PM 71.8°F22.1°C 69.0°F20.6°C 91% Calm Calm 1.0 mph1.6 kmh 30.06 in1017.9 mb - 0.00 in0.0 mm 0.00 in0.0 mm
05:31 PM 72.5°F22.5°C 69.4°F20.8°C 90% Calm Calm -- 30.06 in1017.9 mb - 0.00 in0.0 mm 0.00 in0.0 mm
05:16 PM 73.3°F22.9°C 69.8°F21.0°C 89% Calm Calm -- 30.05 in1017.6 mb - 0.00 in0.0 mm 0.00 in0.0 mm
05:01 PM 74.6°F23.7°C 70.8°F21.6°C 88% Calm Calm -- 30.05 in1017.6 mb - 0.00 in0.0 mm 0.00 in0.0 mm
04:46 PM 76.3°F24.6°C 71.5°F21.9°C 85% Calm Calm -- 30.04 in1017.3 mb - 0.00 in0.0 mm 0.00 in0.0 mm
04:31 PM 77.5°F25.3°C 71.9°F22.2°C 83% Calm Calm -- 30.05 in1017.6 mb - 0.00 in0.0 mm 0.00 in0.0 mm
04:16 PM 77.8°F25.4°C 72.2°F22.3°C 83% Calm Calm -- 30.05 in1017.6 mb - 0.00 in0.0 mm 0.00 in0.0 mm
04:01 PM 77.7°F25.4°C 72.1°F22.3°C 83% Calm Calm -- 30.04 in1017.3 mb - 0.00 in0.0 mm 0.00 in0.0 mm
03:46 PM 78.5°F25.8°C 72.2°F22.3°C 81% Calm Calm 1.0 mph1.6 kmh 30.04 in1017.3 mb - 0.00 in0.0 mm 0.00 in0.0 mm
03:31 PM 79.2°F26.2°C 72.5°F22.5°C 80% 0.4 mph ENE0.6 kmh ENE 1.0 mph1.6 kmh 30.04 in1017.3 mb - 0.00 in0.0 mm 0.00 in0.0 mm
03:16 PM 77.9°F25.5°C 72.0°F22.2°C 82% Calm Calm -- 30.04 in1017.3 mb - 0.00 in0.0 mm 0.00 in0.0 mm
03:03 PM 77.9°F25.5°C 72.3°F22.4°C 83% Calm Calm -- 30.04 in1017.3 mb - 0.00 in0.0 mm 0.00 in0.0 mm
02:46 PM 77.8°F25.4°C 72.2°F22.3°C 83% Calm Calm -- 30.05 in1017.6 mb - 0.00 in0.0 mm 0.00 in0.0 mm
02:31 PM 77.9°F25.5°C 72.7°F22.6°C 84% Calm Calm -- 30.05 in1017.6 mb - 0.00 in0.0 mm 0.00 in0.0 mm
02:16 PM 78.1°F25.6°C 71.8°F22.1°C 81% Calm Calm -- 30.05 in1017.6 mb - 0.00 in0.0 mm 0.00 in0.0 mm
02:01 PM 78.3°F25.7°C 72.0°F22.2°C 81% Calm Calm -- 30.06 in1017.9 mb - 0.00 in0.0 mm 0.00 in0.0 mm
01:46 PM 77.9°F25.5°C 71.6°F22.0°C 81% Calm Calm -- 30.07 in1018.3 mb - 0.00 in0.0 mm 0.00 in0.0 mm
01:31 PM 78.1°F25.6°C 71.4°F21.9°C 80% Calm Calm -- 30.07 in1018.3 mb - 0.00 in0.0 mm 0.00 in0.0 mm
01:16 PM 79.8°F26.6°C 72.3°F22.4°C 78% 0.4 mph ENE0.6 kmh ENE 1.0 mph1.6 kmh 30.07 in1018.3 mb - 0.00 in0.0 mm 0.00 in0.0 mm
01:01 PM 79.4°F26.3°C 71.2°F21.8°C 76% Calm Calm -- 30.08 in1018.6 mb - 0.00 in0.0 mm 0.00 in0.0 mm
12:46 PM 79.1°F26.2°C 70.1°F21.2°C 74% Calm Calm -- 30.08 in1018.6 mb - 0.00 in0.0 mm 0.00 in0.0 mm
12:31 PM 79.2°F26.2°C 70.2°F21.2°C 74% Calm Calm -- 30.09 in1019.0 mb - 0.00 in0.0 mm 0.00 in0.0 mm
12:16 PM 80.3°F26.8°C 71.6°F22.0°C 75% Calm Calm 1.0 mph1.6 kmh 30.09 in1019.0 mb - 0.00 in0.0 mm 0.00 in0.0 mm
12:01 PM 79.6°F26.4°C 72.1°F22.3°C 78% Calm Calm -- 30.09 in1019.0 mb - 0.00 in0.0 mm 0.00 in0.0 mm
11:46 AM 79.6°F26.4°C 71.3°F21.8°C 76% Calm Calm 1.0 mph1.6 kmh 30.09 in1019.0 mb - 0.00 in0.0 mm 0.00 in0.0 mm
11:31 AM 79.2°F26.2°C 70.6°F21.4°C 75% Calm Calm 1.0 mph1.6 kmh 30.09 in1019.0 mb - 0.00 in0.0 mm 0.00 in0.0 mm
11:16 AM 78.7°F25.9°C 70.1°F21.2°C 75% Calm Calm -- 30.10 in1019.3 mb - 0.00 in0.0 mm 0.00 in0.0 mm
11:01 AM 78.7°F25.9°C 70.9°F21.6°C 77% Calm Calm -- 30.10 in1019.3 mb - 0.00 in0.0 mm 0.00 in0.0 mm
10:46 AM 77.7°F25.4°C 70.3°F21.3°C 78% Calm Calm 1.0 mph1.6 kmh 30.10 in1019.3 mb - 0.00 in0.0 mm 0.00 in0.0 mm
10:31 AM 77.5°F25.3°C 70.5°F21.4°C 79% 0.1 mph S0.2 kmh S 1.0 mph1.6 kmh 30.10 in1019.3 mb - 0.00 in0.0 mm 0.00 in0.0 mm
10:16 AM 77.2°F25.1°C 70.9°F21.6°C 81% 0.1 mph NE0.2 kmh NE -- 30.11 in1019.6 mb - 0.00 in0.0 mm 0.00 in0.0 mm
10:04 AM 77.1°F25.1°C 70.9°F21.6°C 81% Calm Calm 1.0 mph1.6 kmh 30.11 in1019.6 mb - 0.00 in0.0 mm 0.00 in0.0 mm
09:46 AM 76.9°F24.9°C 71.7°F22.1°C 84% Calm Calm 1.0 mph1.6 kmh 30.11 in1019.6 mb - 0.00 in0.0 mm 0.00 in0.0 mm
09:31 AM 76.0°F24.4°C 71.1°F21.7°C 85% Calm Calm -- 30.11 in1019.6 mb - 0.00 in0.0 mm 0.00 in0.0 mm
09:16 AM 74.3°F23.5°C 70.2°F21.2°C 87% Calm Calm -- 30.11 in1019.6 mb - 0.00 in0.0 mm 0.00 in0.0 mm
09:01 AM 73.3°F22.9°C 69.5°F20.8°C 88% Calm Calm -- 30.11 in1019.6 mb - 0.00 in0.0 mm 0.00 in0.0 mm
08:46 AM 72.4°F22.4°C 69.3°F20.7°C 90% Calm Calm -- 30.10 in1019.3 mb - 0.00 in0.0 mm 0.00 in0.0 mm
08:31 AM 71.5°F21.9°C 68.7°F20.4°C 91% Calm Calm -- 30.10 in1019.3 mb - 0.00 in0.0 mm 0.00 in0.0 mm
08:16 AM 70.3°F21.3°C 68.2°F20.1°C 93% Calm Calm -- 30.10 in1019.3 mb - 0.00 in0.0 mm 0.00 in0.0 mm
08:01 AM 69.4°F20.8°C 67.6°F19.8°C 94% Calm Calm -- 30.10 in1019.3 mb - 0.00 in0.0 mm 0.00 in0.0 mm
07:46 AM 68.6°F20.3°C 66.8°F19.3°C 94% Calm Calm -- 30.10 in1019.3 mb - 0.00 in0.0 mm 0.00 in0.0 mm
07:31 AM 68.1°F20.1°C 66.3°F19.1°C 94% Calm Calm -- 30.10 in1019.3 mb - 0.00 in0.0 mm 0.00 in0.0 mm
07:16 AM 67.3°F19.6°C 65.5°F18.6°C 94% Calm Calm -- 30.10 in1019.3 mb - 0.00 in0.0 mm 0.00 in0.0 mm
07:01 AM 67.0°F19.4°C 64.9°F18.3°C 93% Calm Calm -- 30.10 in1019.3 mb - 0.00 in0.0 mm 0.00 in0.0 mm
06:46 AM 65.9°F18.8°C 64.2°F17.9°C 94% Calm Calm -- 30.10 in1019.3 mb - 0.00 in0.0 mm 0.00 in0.0 mm
06:31 AM 65.0°F18.3°C 62.9°F17.2°C 93% Calm Calm -- 30.09 in1019.0 mb - 0.00 in0.0 mm 0.00 in0.0 mm
06:16 AM 64.8°F18.2°C 63.0°F17.2°C 94% Calm Calm -- 30.09 in1019.0 mb - 0.00 in0.0 mm 0.00 in0.0 mm
06:01 AM 64.8°F18.2°C 63.0°F17.2°C 94% Calm Calm -- 30.09 in1019.0 mb - 0.00 in0.0 mm 0.00 in0.0 mm
05:46 AM 64.7°F18.2°C 62.9°F17.2°C 94% Calm Calm -- 30.09 in1019.0 mb - 0.00 in0.0 mm 0.00 in0.0 mm
05:31 AM 64.9°F18.3°C 62.8°F17.1°C 93% Calm Calm -- 30.09 in1019.0 mb - 0.00 in0.0 mm 0.00 in0.0 mm
05:16 AM 64.9°F18.3°C 63.2°F17.3°C 94% Calm Calm -- 30.08 in1018.6 mb - 0.00 in0.0 mm 0.00 in0.0 mm
05:03 AM 65.0°F18.3°C 62.9°F17.2°C 93% Calm Calm -- 30.09 in1019.0 mb - 0.00 in0.0 mm 0.00 in0.0 mm
04:46 AM 65.3°F18.5°C 63.5°F17.5°C 94% Calm Calm -- 30.08 in1018.6 mb - 0.00 in0.0 mm 0.00 in0.0 mm
04:31 AM 65.3°F18.5°C 63.5°F17.5°C 94% Calm Calm -- 30.09 in1019.0 mb - 0.00 in0.0 mm 0.00 in0.0 mm
04:16 AM 65.0°F18.3°C 63.2°F17.3°C 94% Calm Calm -- 30.09 in1019.0 mb - 0.00 in0.0 mm 0.00 in0.0 mm
04:01 AM 65.4°F18.6°C 63.6°F17.6°C 94% Calm Calm -- 30.09 in1019.0 mb - 0.00 in0.0 mm 0.00 in0.0 mm
03:46 AM 65.4°F18.6°C 63.6°F17.6°C 94% Calm Calm -- 30.09 in1019.0 mb - 0.00 in0.0 mm 0.00 in0.0 mm
03:31 AM 65.7°F18.7°C 63.9°F17.7°C 94% Calm Calm -- 30.08 in1018.6 mb - 0.00 in0.0 mm 0.00 in0.0 mm
03:16 AM 66.1°F18.9°C 64.3°F17.9°C 94% Calm Calm -- 30.09 in1019.0 mb - 0.00 in0.0 mm 0.00 in0.0 mm
03:01 AM 66.3°F19.1°C 64.2°F17.9°C 93% Calm Calm -- 30.08 in1018.6 mb - 0.00 in0.0 mm 0.00 in0.0 mm
02:46 AM 66.3°F19.1°C 64.2°F17.9°C 93% Calm Calm -- 30.08 in1018.6 mb - 0.00 in0.0 mm 0.00 in0.0 mm
02:31 AM 66.2°F19.0°C 64.1°F17.8°C 93% Calm Calm -- 30.08 in1018.6 mb - 0.00 in0.0 mm 0.00 in0.0 mm
02:16 AM 66.2°F19.0°C 64.4°F18.0°C 94% Calm Calm -- 30.08 in1018.6 mb - 0.00 in0.0 mm 0.00 in0.0 mm
02:01 AM 66.2°F19.0°C 64.4°F18.0°C 94% Calm Calm -- 30.09 in1019.0 mb - 0.00 in0.0 mm 0.00 in0.0 mm
01:46 AM 66.1°F18.9°C 64.3°F17.9°C 94% Calm Calm -- 30.09 in1019.0 mb - 0.00 in0.0 mm 0.00 in0.0 mm
01:31 AM 65.9°F18.8°C 64.1°F17.8°C 94% Calm Calm -- 30.09 in1019.0 mb - 0.00 in0.0 mm 0.00 in0.0 mm
01:16 AM 65.7°F18.7°C 63.6°F17.6°C 93% Calm Calm -- 30.09 in1019.0 mb - 0.00 in0.0 mm 0.00 in0.0 mm
01:01 AM 65.8°F18.8°C 63.7°F17.6°C 93% Calm Calm -- 30.09 in1019.0 mb - 0.00 in0.0 mm 0.00 in0.0 mm
12:46 AM 66.1°F18.9°C 64.3°F17.9°C 94% Calm Calm -- 30.09 in1019.0 mb - 0.00 in0.0 mm 0.00 in0.0 mm
12:31 AM 65.8°F18.8°C 63.7°F17.6°C 93% Calm Calm -- 30.09 in1019.0 mb - 0.00 in0.0 mm 0.00 in0.0 mm
12:16 AM 65.9°F18.8°C 63.8°F17.7°C 93% Calm Calm -- 30.09 in1019.0 mb - 0.00 in0.0 mm 0.00 in0.0 mm
12:02 AM 66.1°F18.9°C 64.3°F17.9°C 94% Calm Calm -- 30.09 in1019.0 mb - 0.00 in0.0 mm 0.00 in0.0 mm